Time;durP1;ratioP1;P1;durP2;ratioP2;P2;SDS_P1;SDS_P2;PMS_P1;PMS_P2;Temp;Humidity;BMP_temperature;BMP_pressure;BME280_temperature;BME280_humidity;BME280_pressure;Samples;Min_cycle;Max_cycle;Signal;HPM_P1;HPM_P2
2022/07/25 12:50:09;;;;;;;3.38;1.65;;;;;;;31.56;32.14;99512.78;10457786;28;20487;-69
2022/07/25 12:55:14;;;;;;;3.08;1.50;;;;;;;31.93;31.45;99543.34;10446679;28;20048;-69
2022/07/25 13:00:18;;;;;;;3.40;1.80;;;;;;;32.12;30.92;99544.84;10445855;28;20037;-70
2022/07/25 13:05:19;;;;;;;2.63;1.60;;;;;;;32.09;30.86;99524.34;10448690;28;20037;-70
2022/07/25 13:10:20;;;;;;;26.35;2.40;;;;;;;32.15;31.96;99528.50;10447765;28;20128;-71
2022/07/25 13:15:22;;;;;;;5.63;1.60;;;;;;;31.99;30.96;99513.75;10448266;28;20124;-71
2022/07/25 13:20:23;;;;;;;4.17;1.57;;;;;;;31.21;30.98;99407.78;10437068;28;20052;-72
2022/07/25 13:25:24;;;;;;;4.03;1.80;;;;;;;31.82;30.67;99515.41;10436011;28;20136;-74
2022/07/25 13:30:25;;;;;;;6.05;1.67;;;;;;;31.51;31.16;99458.03;10441299;28;20044;-71
2022/07/25 13:35:25;;;;;;;2.50;1.60;;;;;;;31.43;30.88;99439.66;10434784;28;20052;-71
2022/07/25 13:40:26;;;;;;;3.08;1.58;;;;;;;31.74;30.97;99468.75;10427593;28;20661;-71
2022/07/25 13:45:28;;;;;;;2.45;1.70;;;;;;;31.95;30.61;99502.63;10424602;28;20061;-76
2022/07/25 13:50:29;;;;;;;7.32;1.70;;;;;;;31.73;30.90;99486.38;10425594;28;20037;-74
2022/07/25 13:55:31;;;;;;;7.65;1.77;;;;;;;31.88;31.69;99507.78;10429689;28;20045;-70
2022/07/25 14:00:31;;;;;;;2.60;1.97;;;;;;;31.92;31.71;99529.91;10415805;28;20041;-73
2022/07/25 14:05:32;;;;;;;4.97;1.60;;;;;;;31.84;30.62;99518.63;10395373;28;20150;-72
2022/07/25 14:10:33;;;;;;;4.28;1.80;;;;;;;31.74;30.68;99510.75;10392542;28;20461;-71
2022/07/25 14:15:34;;;;;;;2.97;1.70;;;;;;;31.21;30.74;99445.38;10394437;28;20033;-72
2022/07/25 14:20:35;;;;;;;4.13;2.38;;;;;;;31.59;30.93;99522.28;10397761;28;20034;-71
2022/07/25 14:25:37;;;;;;;2.63;2.00;;;;;;;31.59;30.97;99527.75;10399084;28;20041;-75
2022/07/25 14:30:38;;;;;;;3.95;2.70;;;;;;;31.42;30.52;99511.38;10418117;28;20488;-74
2022/07/25 14:35:39;;;;;;;13.55;3.50;;;;;;;31.37;31.00;99521.38;10418183;28;20042;-71
2022/07/25 14:40:39;;;;;;;5.78;3.38;;;;;;;30.38;31.14;99386.13;10417906;28;20037;-70
2022/07/25 14:45:41;;;;;;;6.15;2.45;;;;;;;31.22;31.10;99534.78;10417236;28;20097;-70
2022/07/25 14:50:41;;;;;;;7.53;2.10;;;;;;;30.67;30.57;99473.19;10416548;28;20056;-71
2022/07/25 14:55:42;;;;;;;17.25;2.70;;;;;;;30.25;31.39;99427.06;10394004;28;20551;-70
2022/07/25 15:00:44;;;;;;;7.10;2.50;;;;;;;30.92;31.39;99559.31;10376603;28;20149;-69
2022/07/25 15:05:45;;;;;;;5.43;3.70;;;;;;;30.61;31.75;99529.31;10416863;28;20065;-71
2022/07/25 15:10:46;;;;;;;18.58;4.55;;;;;;;30.55;32.61;99539.63;10391293;28;20092;-71
2022/07/25 15:15:47;;;;;;;13.10;4.10;;;;;;;30.73;32.18;99561.56;10374529;28;20120;-71
2022/07/25 15:20:50;;;;;;;5.60;3.50;;;;;;;30.68;32.48;99559.78;10374398;28;20096;-73
2022/07/25 15:25:51;;;;;;;;;;;;;;;30.81;32.45;99552.53;10389678;28;20501;-71
2022/07/25 15:30:52;;;;;;;5.00;2.22;;;;;;;30.00;33.12;99488.06;10394422;28;19918;-71
2022/07/25 15:35:53;;;;;;;3.72;2.08;;;;;;;30.24;33.38;99546.00;10373935;28;20049;-71
2022/07/25 15:40:54;;;;;;;10.20;2.30;;;;;;;29.40;33.98;99434.69;10373981;28;20087;-72
2022/07/25 15:45:55;;;;;;;3.35;1.60;;;;;;;29.12;34.13;99434.88;10407198;28;20110;-72
2022/07/25 15:50:57;;;;;;;8.90;2.17;;;;;;;29.69;34.98;99565.56;10414742;28;20128;-72
2022/07/25 15:55:58;;;;;;;34.63;3.43;;;;;;;29.29;35.91;99570.13;10415130;28;20037;-72
2022/07/25 16:00:59;;;;;;;4.22;1.77;;;;;;;28.80;36.52;99548.00;10413735;28;20041;-73
2022/07/25 16:05:59;;;;;;;20.95;8.80;;;;;;;28.58;36.97;99570.63;10413857;28;20049;-72
2022/07/25 16:11:01;;;;;;;21.40;4.00;;;;;;;28.33;37.51;99576.59;10414029;28;20120;-72
2022/07/25 16:16:03;;;;;;;28.00;3.70;;;;;;;28.05;38.56;99582.06;10413130;28;20055;-72
2022/07/25 16:21:04;;;;;;;18.63;3.25;;;;;;;27.72;39.06;99581.28;10412425;28;20103;-72
2022/07/25 16:26:07;;;;;;;18.10;3.20;;;;;;;27.53;39.95;99586.81;10414571;28;20037;-70
2022/07/25 16:31:08;;;;;;;13.88;3.03;;;;;;;27.33;40.65;99590.69;10413436;28;20095;-70
2022/07/25 16:36:10;;;;;;;23.55;3.63;;;;;;;26.47;41.55;99513.69;10412919;28;20087;-70
2022/07/25 16:41:11;;;;;;;7.25;2.75;;;;;;;26.83;43.03;99612.09;10413329;28;20041;-71
2022/07/25 16:46:12;;;;;;;9.77;2.65;;;;;;;26.53;43.68;99608.69;10413022;28;20057;-71
2022/07/25 16:51:13;;;;;;;13.20;2.65;;;;;;;26.36;44.65;99619.22;10412897;28;20061;-71
2022/07/25 16:56:15;;;;;;;8.02;3.72;;;;;;;26.06;45.37;99621.19;10412753;28;20056;-72
2022/07/25 17:01:16;;;;;;;25.63;9.27;;;;;;;25.17;45.40;99517.28;10413046;28;20048;-72
2022/07/25 17:06:17;;;;;;;37.50;8.77;;;;;;;25.72;46.07;99642.97;10412639;28;20056;-73
2022/07/25 17:11:18;;;;;;;26.50;7.50;;;;;;;25.32;47.63;99620.44;10414079;28;20042;-71
2022/07/25 17:16:19;;;;;;;18.20;5.50;;;;;;;25.38;48.11;99668.25;10411898;28;20133;-71
2022/07/25 17:21:20;;;;;;;13.52;6.32;;;;;;;24.74;48.50;99593.06;10413054;28;20450;-71
2022/07/25 17:26:21;;;;;;;29.35;7.50;;;;;;;24.55;49.75;99596.41;10399638;28;20049;-72
2022/07/25 17:31:23;;;;;;;14.10;6.32;;;;;;;24.85;50.31;99681.56;10381748;28;20053;-70
2022/07/25 17:36:24;;;;;;;12.60;4.68;;;;;;;24.21;51.38;99619.88;10363305;28;20057;-71
2022/07/25 17:41:25;;;;;;;15.60;4.38;;;;;;;24.46;52.10;99697.72;10368169;28;20116;-69
2022/07/25 17:46:26;;;;;;;10.13;2.90;;;;;;;24.08;51.77;99665.50;10369511;28;20060;-70
2022/07/25 17:51:27;;;;;;;15.45;3.10;;;;;;;23.92;52.83;99686.38;10370393;28;20045;-70
2022/07/25 18:07:30;;;;;;;18.40;3.83;;;;;;;22.81;56.25;99662.56;11768591;22;21982;-72
2022/07/25 18:12:31;;;;;;;6.93;2.40;;;;;;;22.55;56.50;99643.50;10431605;28;20530;-69
2022/07/25 18:17:32;;;;;;;7.80;2.58;;;;;;;22.96;56.85;99733.88;10433154;28;20052;-72
2022/07/25 18:22:33;;;;;;;9.70;2.70;;;;;;;22.59;57.32;99700.66;10432020;28;20392;-71
2022/07/25 18:27:34;;;;;;;6.57;2.55;;;;;;;22.49;57.98;99720.34;10433322;28;20050;-71
2022/07/25 18:32:35;;;;;;;9.82;3.20;;;;;;;22.53;58.28;99743.94;10429583;28;20090;-72
2022/07/25 18:37:36;;;;;;;8.45;4.80;;;;;;;22.36;58.31;99732.44;10429159;28;20499;-71
2022/07/25 18:42:37;;;;;;;13.25;4.82;;;;;;;22.30;58.76;99739.72;10432416;28;20030;-73
2022/07/25 18:47:39;;;;;;;9.23;3.90;;;;;;;22.12;57.64;99704.94;10420589;28;20120;-68
2022/07/25 18:52:39;;;;;;;8.77;3.40;;;;;;;21.85;57.42;99688.78;10409941;28;20095;-69
2022/07/25 18:57:40;;;;;;;5.38;3.00;;;;;;;22.18;58.03;99739.09;10391455;28;20068;-69
2022/07/25 19:02:41;;;;;;;11.80;3.50;;;;;;;22.06;58.59;99733.03;10393573;28;20180;-69
2022/07/25 19:07:42;;;;;;;12.38;3.60;;;;;;;22.09;58.70;99748.72;10409197;28;20061;-70
2022/07/25 19:12:43;;;;;;;15.13;4.13;;;;;;;21.88;59.10;99718.81;10374769;28;20191;-70
2022/07/25 19:17:44;;;;;;;8.48;3.67;;;;;;;21.53;59.51;99677.94;10367640;28;20136;-71
2022/07/25 19:22:45;;;;;;;19.10;3.80;;;;;;;21.92;59.28;99750.75;10358191;28;20045;-73
2022/07/25 19:27:46;;;;;;;10.88;4.50;;;;;;;21.81;59.29;99747.16;10370590;28;20474;-69
2022/07/25 19:32:47;;;;;;;14.00;7.00;;;;;;;21.71;59.81;99749.75;10369288;28;20409;-70
2022/07/25 19:37:48;;;;;;;39.03;17.63;;;;;;;21.05;60.34;99649.88;10367544;28;20053;-71
2022/07/25 19:42:48;;;;;;;63.97;26.23;;;;;;;21.49;60.51;99722.78;10372219;28;20187;-71
2022/07/25 19:47:49;;;;;;;54.75;26.80;;;;;;;21.60;60.68;99744.25;10371216;28;20044;-68
2022/07/25 19:52:50;;;;;;;65.28;29.17;;;;;;;21.04;61.29;99661.78;10370035;28;20030;-69
2022/07/25 19:57:51;;;;;;;56.38;25.95;;;;;;;20.59;61.44;99588.09;10370855;28;20045;-69
2022/07/25 20:02:52;;;;;;;58.15;25.33;;;;;;;21.15;61.98;99701.31;10372627;28;20038;-69
2022/07/25 20:07:53;;;;;;;80.45;34.25;;;;;;;21.14;62.58;99748.28;10345984;28;20481;-69
2022/07/25 20:12:54;;;;;;;86.85;37.78;;;;;;;20.46;63.01;99659.44;10339845;28;20049;-69
2022/07/25 20:17:55;;;;;;;101.50;41.38;;;;;;;20.87;63.30;99732.84;10371471;28;20411;-69
2022/07/25 20:22:56;;;;;;;111.20;40.05;;;;;;;20.91;63.28;99747.50;10363345;28;20128;-69
2022/07/25 20:27:58;;;;;;;81.82;34.53;;;;;;;20.62;63.55;99719.03;10330353;28;20479;-69
2022/07/25 20:32:59;;;;;;;100.03;31.60;;;;;;;20.62;64.13;99740.63;10331674;28;20042;-69
2022/07/25 20:38:00;;;;;;;61.92;25.92;;;;;;;20.48;64.17;99754.41;10331522;28;20054;-69
2022/07/25 20:43:02;;;;;;;69.68;29.38;;;;;;;20.49;64.49;99766.00;10331925;28;20449;-70
2022/07/25 20:48:04;;;;;;;67.90;32.15;;;;;;;20.35;64.46;99756.66;10331541;28;20042;-69
2022/07/25 20:53:06;;;;;;;77.55;29.48;;;;;;;20.40;65.12;99767.50;10332629;28;20044;-71
2022/07/25 20:58:06;;;;;;;73.10;26.75;;;;;;;20.30;65.17;99770.84;10330407;28;20038;-71
2022/07/25 21:03:08;;;;;;;59.22;25.45;;;;;;;20.21;65.10;99761.53;10331659;28;20053;-71
2022/07/25 21:08:11;;;;;;;60.05;25.40;;;;;;;19.85;64.96;99704.34;10345301;28;20054;-71
2022/07/25 21:13:12;;;;;;;46.72;21.65;;;;;;;19.90;65.41;99744.88;10380021;28;20136;-70
2022/07/25 21:18:13;;;;;;;55.40;21.13;;;;;;;19.82;65.84;99753.34;10379903;28;20519;-71
2022/07/25 21:23:14;;;;;;;53.28;21.27;;;;;;;19.83;65.71;99747.72;10379892;28;20076;-71
2022/07/25 21:28:15;;;;;;;48.67;17.05;;;;;;;19.68;65.69;99719.69;10379208;28;20049;-71
2022/07/25 21:33:16;;;;;;;34.22;13.55;;;;;;;19.66;65.75;99693.00;10379544;28;20056;-71
2022/07/25 21:38:17;;;;;;;34.67;13.40;;;;;;;20.08;66.34;99767.28;10379705;28;20479;-71
2022/07/25 21:43:18;;;;;;;31.55;9.40;;;;;;;20.04;66.70;99767.75;10379060;28;20041;-71
2022/07/25 21:50:36;;;;;;;58.15;7.78;;;;;;;19.81;67.59;99768.72;10379068;28;20572;-71
2022/07/25 21:53:40;;;;;;;22.73;5.13;;;;;;;19.15;68.07;99683.97;10378650;28;20037;-71
2022/07/25 21:58:41;;;;;;;17.48;5.15;;;;;;;19.65;68.59;99772.19;10378398;28;20467;-70
2022/07/25 22:03:41;;;;;;;9.90;4.82;;;;;;;18.78;68.52;99616.22;10378706;28;20498;-71
2022/07/25 22:08:42;;;;;;;9.35;4.70;;;;;;;19.70;68.64;99761.50;10377325;28;20488;-71
2022/07/25 22:13:43;;;;;;;5.90;4.72;;;;;;;19.66;68.76;99738.00;10377894;28;20134;-71
2022/07/25 22:18:45;;;;;;;14.32;4.90;;;;;;;19.78;69.73;99752.22;10377417;28;20046;-71
2022/07/25 22:23:45;;;;;;;8.65;4.63;;;;;;;19.59;69.28;99721.91;10377134;28;20050;-71
2022/07/25 22:28:47;;;;;;;10.63;4.85;;;;;;;19.50;70.19;99744.91;10377938;28;20042;-71
2022/07/25 22:33:48;;;;;;;8.00;4.60;;;;;;;19.40;70.86;99748.25;10376672;28;20048;-71
2022/07/25 22:38:49;;;;;;;10.85;5.10;;;;;;;19.30;71.29;99737.31;10377432;28;20515;-71
2022/07/25 22:43:50;;;;;;;10.35;4.75;;;;;;;18.90;71.31;99679.69;10376891;28;20511;-71
2022/07/25 22:48:51;;;;;;;10.82;5.80;;;;;;;19.29;71.49;99743.72;10377269;28;20049;-71
2022/07/25 22:53:51;;;;;;;7.55;4.97;;;;;;;18.97;71.65;99690.34;10376282;28;20037;-71
2022/07/25 22:58:53;;;;;;;12.05;5.18;;;;;;;19.03;72.25;99718.19;10376193;28;20428;-71
2022/07/25 23:03:53;;;;;;;23.83;5.82;;;;;;;19.22;72.49;99746.56;10375590;28;20504;-71
2022/07/25 23:08:55;;;;;;;17.90;6.45;;;;;;;18.73;72.24;99653.78;10375672;28;20060;-71
2022/07/25 23:13:56;;;;;;;10.60;6.18;;;;;;;19.00;72.13;99689.88;10370045;28;20061;-71
2022/07/25 23:18:57;;;;;;;14.68;6.15;;;;;;;19.27;72.35;99727.81;10371601;28;20077;-71
2022/07/25 23:23:58;;;;;;;10.23;6.32;;;;;;;19.21;72.53;99731.47;10335720;28;20061;-71
2022/07/25 23:29:00;;;;;;;12.70;6.28;;;;;;;19.21;72.83;99746.81;10334833;28;20490;-71
2022/07/25 23:34:03;;;;;;;10.43;6.25;;;;;;;18.75;73.08;99681.28;10332851;28;20129;-71
2022/07/25 23:39:04;;;;;;;12.93;6.80;;;;;;;19.12;73.50;99736.41;10334238;28;20050;-71
2022/07/25 23:44:05;;;;;;;9.05;6.43;;;;;;;19.15;73.93;99733.25;10333905;28;20065;-71
2022/07/25 23:49:06;;;;;;;13.98;6.90;;;;;;;19.07;73.94;99727.41;10332876;28;20038;-71
2022/07/25 23:54:07;;;;;;;9.70;6.70;;;;;;;18.53;74.23;99660.34;10333939;28;20489;-71
2022/07/25 23:59:08;;;;;;;10.32;6.65;;;;;;;18.16;74.71;99628.38;10332684;28;20050;-71
